Time,TemperatureF,DewpointF,PressureIn,WindDirection,WindDirectionDegrees,WindSpeedMPH,WindSpeedGustMPH,Humidity,HourlyPrecipIn,Conditions,Clouds,dailyrainin,SoftwareType,DateUTC
2013-07-22 00:01:00,70.5,47.0,0.00,SE,126,0.0,0.0,43,0.00,,---,0.00,VWS V14.01,2013-07-22 04:01:00,
2013-07-22 00:02:00,70.5,47.6,0.00,SE,127,0.0,0.0,44,0.00,,---,0.00,VWS V14.01,2013-07-22 04:02:00,
2013-07-22 00:05:00,70.5,47.6,0.00,SE,127,0.0,0.0,44,0.00,,---,0.00,VWS V14.01,2013-07-22 04:05:00,
2013-07-22 00:06:00,70.5,47.6,0.00,SE,126,0.0,0.0,44,0.00,,---,0.00,VWS V14.01,2013-07-22 04:06:00,
2013-07-22 00:11:00,70.3,47.4,0.00,SE,127,0.0,0.0,44,0.00,,---,0.00,VWS V14.01,2013-07-22 04:11:00,
2013-07-22 00:17:00,70.3,47.4,0.00,SE,127,0.0,0.0,44,0.00,,---,0.00,VWS V14.01,2013-07-22 04:17:00,
2013-07-22 00:22:00,70.3,47.4,0.00,SE,126,0.0,0.0,44,0.00,,---,0.00,VWS V14.01,2013-07-22 04:22:00,
2013-07-22 00:27:00,70.5,47.6,0.00,SE,126,0.0,0.0,44,0.00,,---,0.00,VWS V14.01,2013-07-22 04:27:00,
2013-07-22 00:33:00,70.3,47.4,0.00,SE,126,0.0,0.0,44,0.00,,---,0.00,VWS V14.01,2013-07-22 04:33:00,
2013-07-22 00:38:00,70.3,47.4,0.00,SE,126,0.0,0.0,44,0.00,,---,0.00,VWS V14.01,2013-07-22 04:38:00,
2013-07-22 00:43:00,70.2,47.2,0.00,SE,126,0.0,0.0,44,0.00,,---,0.00,VWS V14.01,2013-07-22 04:43:00,
2013-07-22 00:48:00,70.0,47.7,0.00,SE,126,0.0,0.0,45,0.00,,---,0.00,VWS V14.01,2013-07-22 04:48:00,
2013-07-22 00:54:00,70.2,47.8,0.00,SE,126,0.0,0.0,45,0.00,,---,0.00,VWS V14.01,2013-07-22 04:54:00,
2013-07-22 00:59:00,70.2,47.8,0.00,SE,127,0.0,0.0,45,0.00,,---,0.00,VWS V14.01,2013-07-22 04:59:00,
2013-07-22 01:05:00,70.0,47.7,0.00,SE,126,0.0,0.0,45,0.00,,---,0.00,VWS V14.01,2013-07-22 05:05:00,
2013-07-22 01:11:00,70.2,48.4,0.00,SE,126,0.0,0.0,46,0.00,,---,0.00,VWS V14.01,2013-07-22 05:11:00,
2013-07-22 01:16:00,70.3,48.6,0.00,SE,126,0.0,0.0,46,0.00,,---,0.00,VWS V14.01,2013-07-22 05:16:00,
2013-07-22 01:22:00,70.3,48.6,0.00,SE,126,0.0,0.0,46,0.00,,---,0.00,VWS V14.01,2013-07-22 05:22:00,
2013-07-22 01:28:00,70.2,47.8,0.00,SE,127,0.0,0.0,45,0.00,,---,0.00,VWS V14.01,2013-07-22 05:28:00,
2013-07-22 01:33:00,70.2,48.4,0.00,SE,126,0.0,0.0,46,0.00,,---,0.00,VWS V14.01,2013-07-22 05:33:00,
2013-07-22 01:38:00,70.2,48.4,0.00,SE,127,0.0,0.0,46,0.00,,---,0.00,VWS V14.01,2013-07-22 05:38:00,
2013-07-22 01:43:00,70.0,48.3,0.00,SE,126,0.0,0.0,46,0.00,,---,0.00,VWS V14.01,2013-07-22 05:43:00,
2013-07-22 01:49:00,70.2,48.4,0.00,SE,126,0.0,0.0,46,0.00,,---,0.00,VWS V14.01,2013-07-22 05:49:00,
2013-07-22 01:55:00,69.8,47.5,0.00,SE,126,0.0,0.0,45,0.00,,---,0.00,VWS V14.01,2013-07-22 05:55:00,
2013-07-22 02:01:00,69.6,48.0,0.00,SE,126,0.0,0.0,46,0.00,,---,0.00,VWS V14.01,2013-07-22 06:01:00,
2013-07-22 02:07:00,69.8,48.1,0.00,SE,126,0.0,0.0,46,0.00,,---,0.00,VWS V14.01,2013-07-22 06:07:00,
2013-07-22 02:12:00,69.8,48.1,0.00,SE,126,0.0,0.0,46,0.00,,---,0.00,VWS V14.01,2013-07-22 06:12:00,
2013-07-22 02:18:00,69.8,48.7,0.00,SE,126,0.0,0.0,47,0.00,,---,0.00,VWS V14.01,2013-07-22 06:18:00,
2013-07-22 02:24:00,69.6,48.5,0.00,SE,126,0.0,0.0,47,0.00,,---,0.00,VWS V14.01,2013-07-22 06:24:00,
2013-07-22 02:30:00,69.4,48.3,0.00,SE,126,0.0,0.0,47,0.00,,---,0.00,VWS V14.01,2013-07-22 06:30:00,
2013-07-22 02:35:00,69.4,48.3,0.00,SE,127,0.0,0.0,47,0.00,,---,0.00,VWS V14.01,2013-07-22 06:35:00,
2013-07-22 02:40:00,69.3,47.6,0.00,SE,126,0.0,0.0,46,0.00,,---,0.00,VWS V14.01,2013-07-22 06:40:00,
2013-07-22 02:45:00,69.1,48.0,0.00,SE,127,0.0,0.0,47,0.00,,---,0.00,VWS V14.01,2013-07-22 06:45:00,
2013-07-22 02:50:00,69.1,48.0,0.00,SE,127,0.0,0.0,47,0.00,,---,0.00,VWS V14.01,2013-07-22 06:50:00,
2013-07-22 02:56:00,69.3,48.2,0.00,SE,126,0.0,0.0,47,0.00,,---,0.00,VWS V14.01,2013-07-22 06:56:00,
2013-07-22 03:01:00,69.3,48.8,0.00,SE,127,0.0,0.0,48,0.00,,---,0.00,VWS V14.01,2013-07-22 07:01:00,
2013-07-22 03:06:00,69.3,48.8,0.00,SE,126,0.0,0.0,48,0.00,,---,0.00,VWS V14.01,2013-07-22 07:06:00,
2013-07-22 03:11:00,69.1,48.0,0.00,SE,126,0.0,0.0,47,0.00,,---,0.00,VWS V14.01,2013-07-22 07:11:00,
2013-07-22 03:17:00,69.1,48.6,0.00,SE,126,0.0,0.0,48,0.00,,---,0.00,VWS V14.01,2013-07-22 07:17:00,
2013-07-22 03:23:00,68.9,48.4,0.00,SE,127,0.0,0.0,48,0.00,,---,0.00,VWS V14.01,2013-07-22 07:23:00,
2013-07-22 03:28:00,68.7,48.3,0.00,SE,126,0.0,0.0,48,0.00,,---,0.00,VWS V14.01,2013-07-22 07:28:00,
2013-07-22 03:34:00,68.7,48.3,0.00,SE,126,0.0,0.0,48,0.00,,---,0.00,VWS V14.01,2013-07-22 07:34:00,
2013-07-22 03:40:00,68.5,48.1,0.00,SE,127,0.0,0.0,48,0.00,,---,0.00,VWS V14.01,2013-07-22 07:40:00,
2013-07-22 03:45:00,68.5,48.1,0.00,SE,126,0.0,0.0,48,0.00,,---,0.00,VWS V14.01,2013-07-22 07:45:00,
2013-07-22 03:51:00,68.5,48.6,0.00,SE,126,0.0,0.0,49,0.00,,---,0.00,VWS V14.01,2013-07-22 07:51:00,
2013-07-22 03:57:00,68.4,48.5,0.00,SE,127,0.0,0.0,49,0.00,,---,0.00,VWS V14.01,2013-07-22 07:57:00,
2013-07-22 04:03:00,68.5,48.6,0.00,SE,126,0.0,0.0,49,0.00,,---,0.00,VWS V14.01,2013-07-22 08:03:00,
2013-07-22 04:09:00,68.5,48.6,0.00,SE,126,0.0,0.0,49,0.00,,---,0.00,VWS V14.01,2013-07-22 08:09:00,
2013-07-22 04:14:00,68.5,48.6,0.00,SE,126,0.0,0.0,49,0.00,,---,0.00,VWS V14.01,2013-07-22 08:14:00,
2013-07-22 04:20:00,68.7,49.3,0.00,SE,126,0.0,0.0,50,0.00,,---,0.00,VWS V14.01,2013-07-22 08:20:00,
2013-07-22 04:26:00,68.9,49.5,0.00,SE,126,0.0,0.0,50,0.00,,---,0.00,VWS V14.01,2013-07-22 08:26:00,
2013-07-22 04:31:00,69.1,49.7,0.00,SE,126,0.0,0.0,50,0.00,,---,0.00,VWS V14.01,2013-07-22 08:31:00,
2013-07-22 04:36:00,69.1,49.1,0.00,SE,127,0.0,0.0,49,0.00,,---,0.00,VWS V14.01,2013-07-22 08:36:00,
2013-07-22 04:41:00,68.9,49.0,0.00,SE,126,0.0,0.0,49,0.00,,---,0.00,VWS V14.01,2013-07-22 08:41:00,
2013-07-22 04:47:00,68.9,49.0,0.00,SE,126,0.0,0.0,49,0.00,,---,0.00,VWS V14.01,2013-07-22 08:47:00,
2013-07-22 04:53:00,68.7,48.8,0.00,SE,127,0.0,0.0,49,0.00,,---,0.00,VWS V14.01,2013-07-22 08:53:00,
2013-07-22 04:59:00,68.7,49.3,0.00,SE,126,0.0,0.0,50,0.00,,---,0.00,VWS V14.01,2013-07-22 08:59:00,
2013-07-22 05:04:00,68.7,49.3,0.00,SE,126,0.0,0.0,50,0.00,,---,0.00,VWS V14.01,2013-07-22 09:04:00,
2013-07-22 05:09:00,68.7,49.3,0.00,SE,127,0.0,0.0,50,0.00,,---,0.00,VWS V14.01,2013-07-22 09:09:00,
2013-07-22 05:15:00,68.5,49.2,0.00,SE,126,0.0,0.0,50,0.00,,---,0.00,VWS V14.01,2013-07-22 09:15:00,
2013-07-22 05:20:00,68.5,49.2,0.00,SE,126,0.0,0.0,50,0.00,,---,0.00,VWS V14.01,2013-07-22 09:20:00,
2013-07-22 05:26:00,68.5,49.2,0.00,SE,126,0.0,0.0,50,0.00,,---,0.00,VWS V14.01,2013-07-22 09:26:00,
2013-07-22 05:31:00,68.7,49.9,0.00,SE,126,0.0,0.0,51,0.00,,---,0.00,VWS V14.01,2013-07-22 09:31:00,
2013-07-22 05:37:00,68.7,49.9,0.00,SE,126,0.0,0.0,51,0.00,,---,0.00,VWS V14.01,2013-07-22 09:37:00,
2013-07-22 05:42:00,68.7,49.9,0.00,SE,127,0.0,0.0,51,0.00,,---,0.00,VWS V14.01,2013-07-22 09:42:00,
2013-07-22 05:47:00,68.7,49.9,0.00,SE,126,0.0,0.0,51,0.00,,---,0.00,VWS V14.01,2013-07-22 09:47:00,
2013-07-22 05:53:00,68.7,49.9,0.00,SE,126,0.0,0.0,51,0.00,,---,0.00,VWS V14.01,2013-07-22 09:53:00,
2013-07-22 05:58:00,68.7,49.9,0.00,SE,126,0.0,0.0,51,0.00,,---,0.00,VWS V14.01,2013-07-22 09:58:00,
2013-07-22 06:04:00,68.9,50.0,0.00,SE,126,0.0,0.0,51,0.00,,---,0.00,VWS V14.01,2013-07-22 10:04:00,
2013-07-22 06:10:00,68.9,50.0,0.00,SE,126,0.0,0.0,51,0.00,,---,0.00,VWS V14.01,2013-07-22 10:10:00,
2013-07-22 06:15:00,69.1,50.7,0.00,SE,126,0.0,0.0,52,0.00,,---,0.00,VWS V14.01,2013-07-22 10:15:00,
2013-07-22 06:20:00,69.1,50.2,0.00,SE,126,0.0,0.0,51,0.00,,---,0.00,VWS V14.01,2013-07-22 10:20:00,
2013-07-22 06:26:00,69.3,50.9,0.00,SE,126,0.0,0.0,52,0.00,,---,0.00,VWS V14.01,2013-07-22 10:26:00,
2013-07-22 06:31:00,69.3,50.4,0.00,SE,126,0.0,0.0,51,0.00,,---,0.00,VWS V14.01,2013-07-22 10:31:00,
2013-07-22 06:36:00,69.3,50.9,0.00,SE,127,0.0,0.0,52,0.00,,---,0.00,VWS V14.01,2013-07-22 10:36:00,
2013-07-22 06:41:00,69.4,51.1,0.00,SE,126,0.0,0.0,52,0.00,,---,0.00,VWS V14.01,2013-07-22 10:41:00,
2013-07-22 06:47:00,69.4,51.1,0.00,SE,127,0.0,0.0,52,0.00,,---,0.00,VWS V14.01,2013-07-22 10:47:00,
2013-07-22 06:52:00,69.4,51.1,0.00,SE,126,0.0,0.0,52,0.00,,---,0.00,VWS V14.01,2013-07-22 10:52:00,
2013-07-22 06:58:00,69.6,51.8,0.00,SE,127,0.0,0.0,53,0.00,,---,0.00,VWS V14.01,2013-07-22 10:58:00,
2013-07-22 07:04:00,69.8,51.4,0.00,SE,127,0.0,0.0,52,0.00,,---,0.00,VWS V14.01,2013-07-22 11:04:00,
2013-07-22 07:09:00,70.2,52.2,0.00,SE,127,0.0,0.0,53,0.00,,---,0.00,VWS V14.01,2013-07-22 11:09:00,
2013-07-22 07:15:00,70.3,51.9,0.00,SE,127,0.0,0.0,52,0.00,,---,0.00,VWS V14.01,2013-07-22 11:15:00,
2013-07-22 07:21:00,70.7,52.8,0.00,SE,127,0.0,0.0,53,0.00,,---,0.00,VWS V14.01,2013-07-22 11:21:00,
2013-07-22 07:26:00,70.9,52.4,0.00,SE,126,0.0,0.0,52,0.00,,---,0.00,VWS V14.01,2013-07-22 11:26:00,
2013-07-22 07:32:00,70.9,52.4,0.00,SE,126,0.0,0.0,52,0.00,,---,0.00,VWS V14.01,2013-07-22 11:32:00,
2013-07-22 07:37:00,71.1,52.0,0.00,SE,126,0.0,0.0,51,0.00,,---,0.00,VWS V14.01,2013-07-22 11:37:00,
2013-07-22 07:42:00,71.4,52.4,0.00,SE,126,0.0,0.0,51,0.00,,---,0.00,VWS V14.01,2013-07-22 11:42:00,
2013-07-22 07:47:00,71.6,52.0,0.00,SE,126,0.0,0.0,50,0.00,,---,0.00,VWS V14.01,2013-07-22 11:47:00,
2013-07-22 07:52:00,72.0,52.9,0.00,SE,127,0.0,0.0,51,0.00,,---,0.00,VWS V14.01,2013-07-22 11:52:00,
2013-07-22 07:57:00,72.3,53.2,0.00,SE,127,0.0,0.0,51,0.00,,---,0.00,VWS V14.01,2013-07-22 11:57:00,
2013-07-22 08:04:00,72.9,53.7,0.00,SE,126,0.0,0.0,51,0.00,,---,0.00,VWS V14.01,2013-07-22 12:04:00,
2013-07-22 08:09:00,73.2,54.0,0.00,SE,126,0.0,0.0,51,0.00,,---,0.00,VWS V14.01,2013-07-22 12:09:00,
2013-07-22 08:15:00,73.4,53.7,0.00,SE,126,0.0,0.0,50,0.00,,---,0.00,VWS V14.01,2013-07-22 12:15:00,
2013-07-22 08:20:00,73.9,53.6,0.00,SE,126,0.0,0.0,49,0.00,,---,0.00,VWS V14.01,2013-07-22 12:20:00,
2013-07-22 08:26:00,74.1,52.6,0.00,SE,126,0.0,0.0,47,0.00,,---,0.00,VWS V14.01,2013-07-22 12:26:00,
2013-07-22 08:31:00,74.1,52.0,0.00,SE,126,0.0,0.0,46,0.00,,---,0.00,VWS V14.01,2013-07-22 12:31:00,
2013-07-22 08:36:00,74.7,52.5,0.00,SE,126,0.0,0.0,46,0.00,,---,0.00,VWS V14.01,2013-07-22 12:36:00,
2013-07-22 08:42:00,75.7,53.5,0.00,SE,126,0.0,0.0,46,0.00,,---,0.00,VWS V14.01,2013-07-22 12:42:00,
2013-07-22 08:47:00,76.1,52.6,0.00,SE,126,0.0,0.0,44,0.00,,---,0.00,VWS V14.01,2013-07-22 12:47:00,
2013-07-22 08:53:00,76.8,52.7,0.00,SE,126,0.0,0.0,43,0.00,,---,0.00,VWS V14.01,2013-07-22 12:53:00,
2013-07-22 08:58:00,77.4,51.8,0.00,SE,126,0.0,0.0,41,0.00,,---,0.00,VWS V14.01,2013-07-22 12:58:00,
2013-07-22 09:04:00,77.7,49.4,0.00,SE,127,0.0,0.0,37,0.00,,---,0.00,VWS V14.01,2013-07-22 13:04:00,
2013-07-22 09:09:00,77.0,47.3,0.00,SE,127,0.0,0.0,35,0.00,,---,0.00,VWS V14.01,2013-07-22 13:09:00,
2013-07-22 09:14:00,77.2,48.9,0.00,SE,127,0.0,0.0,37,0.00,,---,0.00,VWS V14.01,2013-07-22 13:14:00,
2013-07-22 09:20:00,77.2,48.9,0.00,SE,127,0.0,0.0,37,0.00,,---,0.00,VWS V14.01,2013-07-22 13:20:00,
2013-07-22 09:25:00,77.4,47.6,0.00,SE,127,0.0,0.0,35,0.00,,---,0.00,VWS V14.01,2013-07-22 13:25:00,
2013-07-22 09:31:00,77.7,47.9,0.00,SE,127,0.0,0.0,35,0.00,,---,0.00,VWS V14.01,2013-07-22 13:31:00,
2013-07-22 09:36:00,77.9,47.3,0.00,SE,127,0.0,0.0,34,0.00,,---,0.00,VWS V14.01,2013-07-22 13:36:00,
2013-07-22 09:41:00,78.1,47.5,0.00,SE,127,0.0,0.0,34,0.00,,---,0.00,VWS V14.01,2013-07-22 13:41:00,
2013-07-22 09:47:00,78.3,46.8,0.00,SE,127,0.0,0.0,33,0.00,,---,0.00,VWS V14.01,2013-07-22 13:47:00,
2013-07-22 09:52:00,78.4,46.2,0.00,SE,127,0.0,0.0,32,0.00,,---,0.00,VWS V14.01,2013-07-22 13:52:00,
2013-07-22 09:57:00,78.3,46.0,0.00,SE,127,0.0,0.0,32,0.00,,---,0.00,VWS V14.01,2013-07-22 13:57:00,
2013-07-22 10:02:00,78.4,46.2,0.00,SE,127,0.0,0.0,32,0.00,,---,0.00,VWS V14.01,2013-07-22 14:02:00,
2013-07-22 10:07:00,78.4,46.2,0.00,SE,127,0.0,0.0,32,0.00,,---,0.00,VWS V14.01,2013-07-22 14:07:00,
2013-07-22 10:12:00,78.6,46.3,0.00,SE,127,0.0,0.0,32,0.00,,---,0.00,VWS V14.01,2013-07-22 14:12:00,
2013-07-22 10:18:00,79.0,46.6,0.00,SE,127,0.0,0.0,32,0.00,,---,0.00,VWS V14.01,2013-07-22 14:18:00,
2013-07-22 10:23:00,79.5,47.1,0.00,SE,127,0.0,0.0,32,0.00,,---,0.00,VWS V14.01,2013-07-22 14:23:00,
2013-07-22 10:28:00,80.1,46.7,0.00,SE,127,0.0,0.0,31,0.00,,---,0.00,VWS V14.01,2013-07-22 14:28:00,
2013-07-22 10:34:00,80.4,47.0,0.00,SE,127,0.0,0.0,31,0.00,,---,0.00,VWS V14.01,2013-07-22 14:34:00,
2013-07-22 10:39:00,81.5,47.1,0.00,SE,127,0.0,0.0,30,0.00,,---,0.00,VWS V14.01,2013-07-22 14:39:00,
2013-07-22 10:45:00,82.4,47.9,0.00,SE,127,0.0,0.0,30,0.00,,---,0.00,VWS V14.01,2013-07-22 14:45:00,
2013-07-22 10:51:00,83.5,48.8,0.00,SE,127,0.0,0.0,30,0.00,,---,0.00,VWS V14.01,2013-07-22 14:51:00,
2013-07-22 10:56:00,84.4,48.7,0.00,SE,127,0.0,0.0,29,0.00,,---,0.00,VWS V14.01,2013-07-22 14:56:00,
2013-07-22 11:01:00,85.6,49.8,0.00,SE,127,0.0,0.0,29,0.00,,---,0.00,VWS V14.01,2013-07-22 15:01:00,
2013-07-22 11:06:00,87.1,51.0,0.00,SE,127,0.0,0.0,29,0.00,,---,0.00,VWS V14.01,2013-07-22 15:06:00,
2013-07-22 11:12:00,87.4,51.3,0.00,SE,146,0.0,0.0,29,0.00,,---,0.00,VWS V14.01,2013-07-22 15:12:00,
2013-07-22 11:17:00,87.8,50.7,0.00,SE,146,0.0,0.0,28,0.00,,---,0.00,VWS V14.01,2013-07-22 15:17:00,
2013-07-22 11:23:00,87.1,51.0,0.00,SSE,150,0.0,0.0,29,0.00,,---,0.00,VWS V14.01,2013-07-22 15:23:00,
2013-07-22 11:28:00,86.0,50.1,0.00,SSE,150,0.0,0.0,29,0.00,,---,0.00,VWS V14.01,2013-07-22 15:28:00,
2013-07-22 11:33:00,86.0,50.1,0.00,SSE,150,0.0,0.0,29,0.00,,---,0.00,VWS V14.01,2013-07-22 15:33:00,
2013-07-22 11:39:00,86.4,50.4,0.00,SSE,150,0.0,0.0,29,0.00,,---,0.00,VWS V14.01,2013-07-22 15:39:00,
2013-07-22 11:44:00,86.2,50.2,0.00,SSE,150,0.0,0.0,29,0.00,,---,0.00,VWS V14.01,2013-07-22 15:44:00,
2013-07-22 11:49:00,86.4,50.4,0.00,SSE,150,0.0,0.0,29,0.00,,---,0.00,VWS V14.01,2013-07-22 15:49:00,
2013-07-22 11:55:00,87.4,51.3,0.00,SSE,150,0.0,0.0,29,0.00,,---,0.00,VWS V14.01,2013-07-22 15:55:00,
2013-07-22 12:00:00,88.3,51.1,0.00,SSE,150,0.0,0.0,28,0.00,,---,0.00,VWS V14.01,2013-07-22 16:00:00,
2013-07-22 12:06:00,89.6,52.2,0.00,SSE,150,0.0,0.0,28,0.00,,---,0.00,VWS V14.01,2013-07-22 16:06:00,
2013-07-22 12:12:00,89.2,51.9,0.00,SSE,149,0.0,0.0,28,0.00,,---,0.00,VWS V14.01,2013-07-22 16:12:00,
2013-07-22 12:17:00,88.2,51.0,0.00,SSE,149,0.0,0.0,28,0.00,,---,0.00,VWS V14.01,2013-07-22 16:17:00,
2013-07-22 12:23:00,87.8,50.7,0.00,South,178,0.0,0.0,28,0.00,,---,0.00,VWS V14.01,2013-07-22 16:23:00,
2013-07-22 12:28:00,88.2,51.0,0.00,SE,135,0.0,0.0,28,0.00,,---,0.00,VWS V14.01,2013-07-22 16:28:00,
2013-07-22 12:33:00,89.2,51.9,0.00,SE,135,0.0,0.0,28,0.00,,---,0.00,VWS V14.01,2013-07-22 16:33:00,
2013-07-22 12:38:00,88.9,51.6,0.00,ESE,120,0.0,0.0,28,0.00,,---,0.00,VWS V14.01,2013-07-22 16:38:00,
2013-07-22 12:43:00,88.9,51.6,0.00,ESE,121,0.0,0.0,28,0.00,,---,0.00,VWS V14.01,2013-07-22 16:43:00,
2013-07-22 12:49:00,88.9,51.6,0.00,South,174,0.0,0.0,28,0.00,,---,0.00,VWS V14.01,2013-07-22 16:49:00,
2013-07-22 12:55:00,89.2,51.9,0.00,SSE,165,0.0,0.0,28,0.00,,---,0.00,VWS V14.01,2013-07-22 16:55:00,
2013-07-22 13:00:00,89.6,52.2,0.00,SSE,165,0.0,0.0,28,0.00,,---,0.00,VWS V14.01,2013-07-22 17:00:00,
2013-07-22 13:05:00,89.8,52.4,0.00,SSE,165,0.0,0.0,28,0.00,,---,0.00,VWS V14.01,2013-07-22 17:05:00,
2013-07-22 13:11:00,89.1,51.8,0.00,SSE,165,0.0,0.0,28,0.00,,---,0.00,VWS V14.01,2013-07-22 17:11:00,
2013-07-22 13:16:00,88.7,51.4,0.00,SSE,165,0.0,0.0,28,0.00,,---,0.00,VWS V14.01,2013-07-22 17:16:00,
2013-07-22 13:21:00,88.2,51.0,0.00,South,176,0.0,0.0,28,0.00,,---,0.00,VWS V14.01,2013-07-22 17:21:00,
2013-07-22 13:26:00,88.3,51.1,0.00,South,176,0.0,0.0,28,0.00,,---,0.00,VWS V14.01,2013-07-22 17:26:00,
2013-07-22 13:32:00,87.6,51.5,0.00,South,174,0.0,0.0,29,0.00,,---,0.00,VWS V14.01,2013-07-22 17:32:00,
2013-07-22 13:38:00,87.4,51.3,0.00,South,174,0.0,0.0,29,0.00,,---,0.00,VWS V14.01,2013-07-22 17:38:00,
2013-07-22 13:43:00,88.3,51.1,0.00,South,174,0.0,0.0,28,0.00,,---,0.00,VWS V14.01,2013-07-22 17:43:00,
2013-07-22 13:49:00,89.1,51.8,0.00,South,174,0.0,0.0,28,0.00,,---,0.00,VWS V14.01,2013-07-22 17:49:00,
2013-07-22 13:54:00,89.6,52.2,0.00,South,174,0.0,0.0,28,0.00,,---,0.00,VWS V14.01,2013-07-22 17:54:00,
2013-07-22 14:00:00,89.2,51.9,0.00,SSE,160,0.0,0.0,28,0.00,,---,0.00,VWS V14.01,2013-07-22 18:00:00,
2013-07-22 14:06:00,88.9,51.6,0.00,SE,142,0.0,0.0,28,0.00,,---,0.00,VWS V14.01,2013-07-22 18:06:00,
2013-07-22 14:11:00,88.3,51.1,0.00,SE,139,0.0,0.0,28,0.00,,---,0.00,VWS V14.01,2013-07-22 18:11:00,
2013-07-22 14:17:00,87.6,51.5,0.00,SW,214,0.0,2.7,29,0.00,,---,0.00,VWS V14.01,2013-07-22 18:17:00,
2013-07-22 14:23:00,87.4,51.3,0.00,West,281,0.0,0.0,29,0.00,,---,0.00,VWS V14.01,2013-07-22 18:23:00,
2013-07-22 14:29:00,87.1,51.0,0.00,South,170,0.0,0.0,29,0.00,,---,0.00,VWS V14.01,2013-07-22 18:29:00,
2013-07-22 14:34:00,86.9,50.8,0.00,South,170,0.0,0.0,29,0.00,,---,0.00,VWS V14.01,2013-07-22 18:34:00,
2013-07-22 14:42:00,86.9,50.8,0.00,South,177,2.7,2.7,29,0.00,,---,0.00,VWS V14.01,2013-07-22 18:42:00,
2013-07-22 14:47:00,86.5,50.5,0.00,ESE,111,0.0,0.0,29,0.00,,---,0.00,VWS V14.01,2013-07-22 18:47:00,
2013-07-22 14:53:00,87.1,51.0,0.00,ESE,111,0.0,0.0,29,0.00,,---,0.00,VWS V14.01,2013-07-22 18:53:00,
2013-07-22 14:59:00,87.4,51.3,0.00,SE,129,0.0,0.0,29,0.00,,---,0.00,VWS V14.01,2013-07-22 18:59:00,
2013-07-22 15:05:00,87.1,51.0,0.00,SE,142,0.0,0.0,29,0.00,,---,0.00,VWS V14.01,2013-07-22 19:05:00,
2013-07-22 15:10:00,88.0,50.8,0.00,SE,142,0.0,0.0,28,0.00,,---,0.00,VWS V14.01,2013-07-22 19:10:00,
2013-07-22 15:15:00,88.2,51.0,0.00,SE,140,0.0,0.0,28,0.00,,---,0.00,VWS V14.01,2013-07-22 19:15:00,
2013-07-22 15:23:00,88.3,51.1,0.00,SSE,157,0.0,0.0,28,0.00,,---,0.00,VWS V14.01,2013-07-22 19:23:00,
2013-07-22 15:28:00,88.2,51.0,0.00,SE,139,0.0,0.0,28,0.00,,---,0.00,VWS V14.01,2013-07-22 19:28:00,
2013-07-22 15:33:00,88.0,50.8,0.00,SSW,197,0.0,0.0,28,0.00,,---,0.00,VWS V14.01,2013-07-22 19:33:00,
2013-07-22 15:40:00,88.2,51.0,0.00,South,172,0.0,0.0,28,0.00,,---,0.00,VWS V14.01,2013-07-22 19:40:00,
2013-07-22 15:45:00,88.2,51.0,0.00,South,180,0.0,0.0,28,0.00,,---,0.00,VWS V14.01,2013-07-22 19:45:00,
2013-07-22 15:52:00,88.2,51.0,0.00,South,180,0.0,0.0,28,0.00,,---,0.00,VWS V14.01,2013-07-22 19:52:00,
2013-07-22 15:58:00,88.2,51.0,0.00,SSW,202,2.7,2.7,28,0.00,,---,0.00,VWS V14.01,2013-07-22 19:58:00,
2013-07-22 16:04:00,87.3,51.2,0.00,South,188,0.0,2.7,29,0.00,,---,0.00,VWS V14.01,2013-07-22 20:04:00,
2013-07-22 16:10:00,86.7,50.7,0.00,South,188,0.0,0.0,29,0.00,,---,0.00,VWS V14.01,2013-07-22 20:10:00,
2013-07-22 16:15:00,86.5,50.5,0.00,South,188,0.0,0.0,29,0.00,,---,0.00,VWS V14.01,2013-07-22 20:15:00,
2013-07-22 16:17:00,86.5,50.5,0.00,South,188,0.0,0.0,29,0.00,,---,0.00,VWS V14.01,2013-07-22 20:17:00,
2013-07-22 16:18:00,86.5,50.5,0.00,South,188,0.0,0.0,29,0.00,,---,0.00,VWS V14.01,2013-07-22 20:18:00,
2013-07-22 16:19:00,86.5,50.5,0.00,South,188,0.0,0.0,29,0.00,,---,0.00,VWS V14.01,2013-07-22 20:19:00,
2013-07-22 16:20:00,86.5,50.5,0.00,South,188,0.0,0.0,29,0.00,,---,0.00,VWS V14.01,2013-07-22 20:20:00,
2013-07-22 16:25:00,86.4,50.4,0.00,South,188,0.0,0.0,29,0.00,,---,0.00,VWS V14.01,2013-07-22 20:25:00,
2013-07-22 16:30:00,85.8,49.9,0.00,South,188,0.0,0.0,29,0.00,,---,0.00,VWS V14.01,2013-07-22 20:30:00,
2013-07-22 16:31:00,85.8,49.9,0.00,South,188,0.0,0.0,29,0.00,,---,0.00,VWS V14.01,2013-07-22 20:31:00,
2013-07-22 16:36:00,85.1,49.3,0.00,South,188,0.0,0.0,29,0.00,,---,0.00,VWS V14.01,2013-07-22 20:36:00,
2013-07-22 16:41:00,84.4,48.7,0.00,South,188,0.0,0.0,29,0.00,,---,0.00,VWS V14.01,2013-07-22 20:41:00,
2013-07-22 16:46:00,83.5,47.9,0.00,South,188,0.0,0.0,29,0.00,,---,0.00,VWS V14.01,2013-07-22 20:46:00,
2013-07-22 16:48:00,82.9,47.5,0.00,South,188,0.0,0.0,29,0.00,,---,0.00,VWS V14.01,2013-07-22 20:48:00,
2013-07-22 16:53:00,82.0,47.6,0.00,South,188,0.0,0.0,30,0.00,,---,0.00,VWS V14.01,2013-07-22 20:53:00,
2013-07-22 16:58:00,81.3,47.0,0.00,South,188,0.0,0.0,30,0.00,,---,0.00,VWS V14.01,2013-07-22 20:58:00,
2013-07-22 17:03:00,80.8,46.5,0.00,South,188,0.0,0.0,30,0.00,,---,0.00,VWS V14.01,2013-07-22 21:03:00,
2013-07-22 17:09:00,80.2,46.0,0.00,South,188,0.0,0.0,30,0.00,,---,0.00,VWS V14.01,2013-07-22 21:09:00,
2013-07-22 17:14:00,80.1,45.9,0.00,South,188,0.0,0.0,30,0.00,,---,0.00,VWS V14.01,2013-07-22 21:14:00,
2013-07-22 17:20:00,80.4,46.2,0.00,South,188,0.0,0.0,30,0.00,,---,0.00,VWS V14.01,2013-07-22 21:20:00,
2013-07-22 17:25:00,80.8,46.5,0.00,South,188,0.0,0.0,30,0.00,,---,0.00,VWS V14.01,2013-07-22 21:25:00,
2013-07-22 17:31:00,80.2,46.0,0.00,South,188,0.0,0.0,30,0.00,,---,0.00,VWS V14.01,2013-07-22 21:31:00,
2013-07-22 17:36:00,79.3,45.2,0.00,South,188,0.0,0.0,30,0.00,,---,0.00,VWS V14.01,2013-07-22 21:36:00,
2013-07-22 17:41:00,79.0,44.9,0.00,South,188,0.0,0.0,30,0.00,,---,0.00,VWS V14.01,2013-07-22 21:41:00,
2013-07-22 17:46:00,79.2,45.1,0.00,South,188,0.0,0.0,30,0.00,,---,0.00,VWS V14.01,2013-07-22 21:46:00,
2013-07-22 17:51:00,79.3,46.1,0.00,South,188,0.0,0.0,31,0.00,,---,0.00,VWS V14.01,2013-07-22 21:51:00,
2013-07-22 17:57:00,79.7,46.4,0.00,SSW,198,0.0,0.0,31,0.00,,---,0.00,VWS V14.01,2013-07-22 21:57:00,
2013-07-22 18:02:00,80.4,47.0,0.00,SSW,198,0.0,0.0,31,0.00,,---,0.00,VWS V14.01,2013-07-22 22:02:00,
2013-07-22 18:08:00,81.1,46.8,0.00,SSW,198,0.0,0.0,30,0.00,,---,0.00,VWS V14.01,2013-07-22 22:08:00,
2013-07-22 18:14:00,81.5,47.1,0.00,SSW,198,0.0,0.0,30,0.00,,---,0.00,VWS V14.01,2013-07-22 22:14:00,
2013-07-22 18:19:00,81.3,47.0,0.00,SSW,198,0.0,0.0,30,0.00,,---,0.00,VWS V14.01,2013-07-22 22:19:00,
2013-07-22 18:25:00,81.3,47.0,0.00,SSW,198,0.0,0.0,30,0.00,,---,0.00,VWS V14.01,2013-07-22 22:25:00,
2013-07-22 18:30:00,81.1,46.8,0.00,SSW,198,0.0,0.0,30,0.00,,---,0.00,VWS V14.01,2013-07-22 22:30:00,
2013-07-22 18:35:00,81.1,46.8,0.00,SSW,198,0.0,0.0,30,0.00,,---,0.00,VWS V14.01,2013-07-22 22:35:00,
2013-07-22 18:41:00,80.8,46.5,0.00,SSW,198,0.0,0.0,30,0.00,,---,0.00,VWS V14.01,2013-07-22 22:41:00,
2013-07-22 18:46:00,80.4,46.2,0.00,SSW,198,0.0,0.0,30,0.00,,---,0.00,VWS V14.01,2013-07-22 22:46:00,
2013-07-22 18:52:00,79.9,45.7,0.00,SSW,198,0.0,0.0,30,0.00,,---,0.00,VWS V14.01,2013-07-22 22:52:00,
2013-07-22 18:57:00,79.3,45.2,0.00,SSW,198,0.0,0.0,30,0.00,,---,0.00,VWS V14.01,2013-07-22 22:57:00,
2013-07-22 19:02:00,79.0,44.9,0.00,SSW,198,0.0,0.0,30,0.00,,---,0.00,VWS V14.01,2013-07-22 23:02:00,
2013-07-22 19:08:00,77.9,44.9,0.00,SSW,198,0.0,0.0,31,0.00,,---,0.00,VWS V14.01,2013-07-22 23:08:00,
2013-07-22 19:13:00,76.8,44.8,0.00,SSW,198,0.0,0.0,32,0.00,,---,0.00,VWS V14.01,2013-07-22 23:13:00,
2013-07-22 19:19:00,75.9,44.0,0.00,SSW,198,0.0,0.0,32,0.00,,---,0.00,VWS V14.01,2013-07-22 23:19:00,
2013-07-22 19:24:00,75.7,44.6,0.00,SSW,198,0.0,0.0,33,0.00,,---,0.00,VWS V14.01,2013-07-22 23:24:00,
2013-07-22 19:30:00,75.6,44.5,0.00,SSW,198,0.0,0.0,33,0.00,,---,0.00,VWS V14.01,2013-07-22 23:30:00,
2013-07-22 19:36:00,75.2,44.2,0.00,SSW,198,0.0,0.0,33,0.00,,---,0.00,VWS V14.01,2013-07-22 23:36:00,
2013-07-22 19:41:00,75.0,44.8,0.00,SSW,198,0.0,0.0,34,0.00,,---,0.00,VWS V14.01,2013-07-22 23:41:00,
2013-07-22 19:47:00,74.8,45.4,0.00,SSW,198,0.0,0.0,35,0.00,,---,0.00,VWS V14.01,2013-07-22 23:47:00,
2013-07-22 19:52:00,74.8,46.1,0.00,SSW,198,0.0,0.0,36,0.00,,---,0.00,VWS V14.01,2013-07-22 23:52:00,
2013-07-22 19:57:00,75.0,46.3,0.00,SSW,198,0.0,0.0,36,0.00,,---,0.00,VWS V14.01,2013-07-22 23:57:00,
2013-07-22 20:03:00,75.0,48.4,0.00,SSW,198,0.0,0.0,39,0.00,,---,0.00,VWS V14.01,2013-07-23 00:03:00,
2013-07-22 20:08:00,75.0,48.4,0.00,SSW,198,0.0,0.0,39,0.00,,---,0.00,VWS V14.01,2013-07-23 00:08:00,
2013-07-22 20:13:00,75.0,49.1,0.00,SSW,198,0.0,0.0,40,0.04,,---,0.04,VWS V14.01,2013-07-23 00:13:00,
2013-07-22 20:19:00,75.2,48.6,0.00,SSW,198,0.0,0.0,39,0.04,,---,0.04,VWS V14.01,2013-07-23 00:19:00,
2013-07-22 20:24:00,75.2,49.2,0.00,SSW,198,0.0,0.0,40,0.04,,---,0.04,VWS V14.01,2013-07-23 00:24:00,
2013-07-22 20:29:00,75.2,49.2,0.00,SSW,198,0.0,0.0,40,0.04,,---,0.04,VWS V14.01,2013-07-23 00:29:00,
2013-07-22 20:34:00,75.4,50.1,0.00,South,169,0.0,0.0,41,0.04,,---,0.04,VWS V14.01,2013-07-23 00:34:00,
2013-07-22 20:40:00,75.4,52.0,0.00,South,169,0.0,0.0,44,0.04,,---,0.04,VWS V14.01,2013-07-23 00:40:00,
2013-07-22 20:46:00,75.2,51.8,0.00,SSW,200,0.0,0.0,44,0.12,,---,0.12,VWS V14.01,2013-07-23 00:46:00,
2013-07-22 20:51:00,73.4,48.9,0.00,SW,236,0.0,0.0,42,0.12,,---,0.12,VWS V14.01,2013-07-23 00:51:00,
2013-07-22 20:57:00,72.0,48.9,0.00,SW,236,0.0,0.0,44,0.12,,---,0.12,VWS V14.01,2013-07-23 00:57:00,
2013-07-22 21:02:00,71.2,50.6,0.00,SW,236,0.0,0.0,48,0.12,,---,0.12,VWS V14.01,2013-07-23 01:02:00,
2013-07-22 21:07:00,71.2,51.7,0.00,SW,236,0.0,0.0,50,0.12,,---,0.12,VWS V14.01,2013-07-23 01:07:00,
2013-07-22 21:12:00,70.9,53.4,0.00,WSW,237,0.0,0.0,54,0.12,,---,0.12,VWS V14.01,2013-07-23 01:12:00,
2013-07-22 21:18:00,71.1,57.0,0.00,WSW,237,0.0,0.0,61,0.08,,---,0.12,VWS V14.01,2013-07-23 01:18:00,
2013-07-22 21:23:00,71.2,58.5,0.00,WSW,237,0.0,0.0,64,1.30,,---,1.34,VWS V14.01,2013-07-23 01:23:00,
2013-07-22 21:29:00,71.2,58.5,0.00,WSW,237,0.0,0.0,64,1.34,,---,1.38,VWS V14.01,2013-07-23 01:29:00,
2013-07-22 21:34:00,71.1,58.7,0.00,SE,143,2.7,2.7,65,1.34,,---,1.38,VWS V14.01,2013-07-23 01:34:00,
2013-07-22 21:39:00,71.2,59.3,0.00,SE,144,0.0,0.0,66,1.34,,---,1.38,VWS V14.01,2013-07-23 01:39:00,
2013-07-22 21:44:00,70.9,59.0,0.00,North,10,0.0,0.0,66,1.26,,---,1.38,VWS V14.01,2013-07-23 01:44:00,
2013-07-22 21:49:00,70.9,59.0,0.00,WSW,240,0.0,0.0,66,1.26,,---,1.38,VWS V14.01,2013-07-23 01:49:00,
2013-07-22 21:54:00,70.9,59.0,0.00,WSW,240,0.0,0.0,66,1.26,,---,1.38,VWS V14.01,2013-07-23 01:54:00,
2013-07-22 22:00:00,71.1,59.6,0.00,WSW,240,0.0,0.0,67,1.26,,---,1.38,VWS V14.01,2013-07-23 02:00:00,
2013-07-22 22:06:00,71.1,59.6,0.00,WSW,240,0.0,0.0,67,1.26,,---,1.38,VWS V14.01,2013-07-23 02:06:00,
2013-07-22 22:12:00,71.1,59.6,0.00,WSW,240,0.0,0.0,67,1.73,,---,1.85,VWS V14.01,2013-07-23 02:12:00,
2013-07-22 22:17:00,71.1,59.6,0.00,WSW,240,0.0,0.0,67,1.73,,---,1.85,VWS V14.01,2013-07-23 02:17:00,
2013-07-22 22:22:00,71.2,59.7,0.00,WSW,240,0.0,0.0,67,1.73,,---,1.85,VWS V14.01,2013-07-23 02:22:00,
2013-07-22 22:28:00,71.1,59.1,0.00,WSW,240,0.0,0.0,66,0.47,,---,1.85,VWS V14.01,2013-07-23 02:28:00,
2013-07-22 22:33:00,71.1,59.1,0.00,WSW,240,0.0,0.0,66,0.47,,---,1.85,VWS V14.01,2013-07-23 02:33:00,
2013-07-22 22:39:00,71.1,59.1,0.00,WSW,240,0.0,0.0,66,0.47,,---,1.85,VWS V14.01,2013-07-23 02:39:00,
2013-07-22 22:44:00,70.9,59.0,0.00,WSW,240,0.0,0.0,66,0.47,,---,1.85,VWS V14.01,2013-07-23 02:44:00,
2013-07-22 22:50:00,70.9,59.0,0.00,WSW,240,0.0,0.0,66,0.47,,---,1.85,VWS V14.01,2013-07-23 02:50:00,
2013-07-22 22:56:00,70.7,58.4,0.00,WSW,240,0.0,0.0,65,0.47,,---,1.85,VWS V14.01,2013-07-23 02:56:00,
2013-07-22 23:01:00,70.9,59.0,0.00,WSW,240,0.0,0.0,66,0.47,,---,1.85,VWS V14.01,2013-07-23 03:01:00,
2013-07-22 23:06:00,70.7,58.8,0.00,WSW,240,0.0,0.0,66,0.47,,---,1.85,VWS V14.01,2013-07-23 03:06:00,
2013-07-22 23:11:00,70.7,58.8,0.00,WSW,240,0.0,0.0,66,0.47,,---,1.85,VWS V14.01,2013-07-23 03:11:00,
2013-07-22 23:17:00,70.9,59.4,0.00,WSW,240,0.0,0.0,67,0.00,,---,1.85,VWS V14.01,2013-07-23 03:17:00,
2013-07-22 23:22:00,70.7,58.8,0.00,WSW,240,0.0,0.0,66,0.00,,---,1.85,VWS V14.01,2013-07-23 03:22:00,
2013-07-22 23:28:00,70.7,58.8,0.00,WSW,240,0.0,0.0,66,0.00,,---,1.85,VWS V14.01,2013-07-23 03:28:00,
2013-07-22 23:33:00,70.7,59.2,0.00,WSW,240,0.0,0.0,67,0.00,,---,1.85,VWS V14.01,2013-07-23 03:33:00,
2013-07-22 23:38:00,70.9,59.4,0.00,WSW,240,0.0,0.0,67,0.00,,---,1.85,VWS V14.01,2013-07-23 03:38:00,
2013-07-22 23:44:00,70.9,59.4,0.00,WSW,240,0.0,0.0,67,0.00,,---,1.85,VWS V14.01,2013-07-23 03:44:00,
2013-07-22 23:50:00,70.9,59.0,0.00,WSW,240,0.0,0.0,66,0.00,,---,1.85,VWS V14.01,2013-07-23 03:50:00,
2013-07-22 23:55:00,71.1,59.6,0.00,WSW,240,0.0,0.0,67,0.00,,---,1.85,VWS V14.01,2013-07-23 03:55:00,